sensor_id;sensor_type;location;lat;lon;timestamp;temperature;humidity
49579;DHT22;35483;50.828;3.228;2023-05-23T00:00:41;14.50;95.60
49579;DHT22;35483;50.828;3.228;2023-05-23T00:03:06;14.50;95.80
49579;DHT22;35483;50.828;3.228;2023-05-23T00:05:33;14.60;95.60
49579;DHT22;35483;50.828;3.228;2023-05-23T00:08:00;14.60;95.50
49579;DHT22;35483;50.828;3.228;2023-05-23T00:10:26;14.70;95.60
49579;DHT22;35483;50.828;3.228;2023-05-23T00:12:52;14.70;95.50
49579;DHT22;35483;50.828;3.228;2023-05-23T00:15:18;14.70;95.70
49579;DHT22;35483;50.828;3.228;2023-05-23T00:17:44;14.70;95.50
49579;DHT22;35483;50.828;3.228;2023-05-23T00:20:11;14.70;95.60
49579;DHT22;35483;50.828;3.228;2023-05-23T00:22:38;14.70;95.50
49579;DHT22;35483;50.828;3.228;2023-05-23T00:25:10;14.70;95.30
49579;DHT22;35483;50.828;3.228;2023-05-23T00:27:36;14.70;95.80
49579;DHT22;35483;50.828;3.228;2023-05-23T00:30:02;14.70;95.90
49579;DHT22;35483;50.828;3.228;2023-05-23T00:32:28;14.70;95.70
49579;DHT22;35483;50.828;3.228;2023-05-23T00:34:54;14.70;95.70
49579;DHT22;35483;50.828;3.228;2023-05-23T00:37:21;14.80;95.70
49579;DHT22;35483;50.828;3.228;2023-05-23T00:39:48;14.70;95.90
49579;DHT22;35483;50.828;3.228;2023-05-23T00:42:15;14.70;97.60
49579;DHT22;35483;50.828;3.228;2023-05-23T00:44:40;14.60;96.40
49579;DHT22;35483;50.828;3.228;2023-05-23T00:47:06;14.60;96.40
49579;DHT22;35483;50.828;3.228;2023-05-23T00:49:33;14.60;96.20
49579;DHT22;35483;50.828;3.228;2023-05-23T00:52:00;14.70;95.70
49579;DHT22;35483;50.828;3.228;2023-05-23T00:54:28;14.70;96.10
49579;DHT22;35483;50.828;3.228;2023-05-23T00:56:56;14.70;96.00
49579;DHT22;35483;50.828;3.228;2023-05-23T00:59:24;14.70;96.40
49579;DHT22;35483;50.828;3.228;2023-05-23T01:01:51;14.70;96.30
49579;DHT22;35483;50.828;3.228;2023-05-23T01:04:18;14.70;96.60
49579;DHT22;35483;50.828;3.228;2023-05-23T01:06:55;14.70;96.90
49579;DHT22;35483;50.828;3.228;2023-05-23T01:09:26;14.70;96.30
49579;DHT22;35483;50.828;3.228;2023-05-23T01:12:06;14.70;96.00
49579;DHT22;35483;50.828;3.228;2023-05-23T01:15:09;14.70;95.90
49579;DHT22;35483;50.828;3.228;2023-05-23T01:20:49;14.70;99.80
49579;DHT22;35483;50.828;3.228;2023-05-23T01:28:37;14.70;97.50
49579;DHT22;35483;50.828;3.228;2023-05-23T01:31:07;14.70;96.60
49579;DHT22;35483;50.828;3.228;2023-05-23T01:33:35;14.80;95.80
49579;DHT22;35483;50.828;3.228;2023-05-23T01:36:02;14.80;96.20
49579;DHT22;35483;50.828;3.228;2023-05-23T01:38:28;14.70;96.50
49579;DHT22;35483;50.828;3.228;2023-05-23T01:40:54;14.80;96.10
49579;DHT22;35483;50.828;3.228;2023-05-23T01:43:20;14.80;96.00
49579;DHT22;35483;50.828;3.228;2023-05-23T01:45:47;14.80;96.50
49579;DHT22;35483;50.828;3.228;2023-05-23T01:48:14;14.80;96.00
49579;DHT22;35483;50.828;3.228;2023-05-23T01:50:43;14.70;96.60
49579;DHT22;35483;50.828;3.228;2023-05-23T01:53:11;14.70;96.00
49579;DHT22;35483;50.828;3.228;2023-05-23T01:55:39;14.70;96.70
49579;DHT22;35483;50.828;3.228;2023-05-23T01:58:05;14.70;97.00
49579;DHT22;35483;50.828;3.228;2023-05-23T02:00:31;14.80;96.40
49579;DHT22;35483;50.828;3.228;2023-05-23T02:02:57;14.80;96.30
49579;DHT22;35483;50.828;3.228;2023-05-23T02:05:23;14.90;96.40
49579;DHT22;35483;50.828;3.228;2023-05-23T02:07:49;14.90;96.50
49579;DHT22;35483;50.828;3.228;2023-05-23T02:10:15;14.80;96.60
49579;DHT22;35483;50.828;3.228;2023-05-23T02:12:41;14.90;96.20
49579;DHT22;35483;50.828;3.228;2023-05-23T02:15:07;14.90;96.60
49579;DHT22;35483;50.828;3.228;2023-05-23T02:17:33;14.90;96.30
49579;DHT22;35483;50.828;3.228;2023-05-23T02:19:59;14.90;96.30
49579;DHT22;35483;50.828;3.228;2023-05-23T02:22:25;14.90;96.70
49579;DHT22;35483;50.828;3.228;2023-05-23T02:24:51;14.90;96.40
49579;DHT22;35483;50.828;3.228;2023-05-23T02:27:18;14.90;96.50
49579;DHT22;35483;50.828;3.228;2023-05-23T02:29:43;14.90;96.80
49579;DHT22;35483;50.828;3.228;2023-05-23T02:32:09;14.80;96.40
49579;DHT22;35483;50.828;3.228;2023-05-23T02:34:35;14.80;96.30
49579;DHT22;35483;50.828;3.228;2023-05-23T02:37:02;14.90;96.70
49579;DHT22;35483;50.828;3.228;2023-05-23T02:39:28;14.80;96.70
49579;DHT22;35483;50.828;3.228;2023-05-23T02:41:54;14.90;96.60
49579;DHT22;35483;50.828;3.228;2023-05-23T02:44:19;14.90;96.20
49579;DHT22;35483;50.828;3.228;2023-05-23T02:46:45;14.90;96.60
49579;DHT22;35483;50.828;3.228;2023-05-23T02:49:11;14.90;96.30
49579;DHT22;35483;50.828;3.228;2023-05-23T02:51:37;14.90;96.30
49579;DHT22;35483;50.828;3.228;2023-05-23T02:54:02;14.80;96.50
49579;DHT22;35483;50.828;3.228;2023-05-23T02:56:29;14.90;96.50
49579;DHT22;35483;50.828;3.228;2023-05-23T02:58:55;14.80;96.90
49579;DHT22;35483;50.828;3.228;2023-05-23T03:01:21;14.80;96.70
49579;DHT22;35483;50.828;3.228;2023-05-23T03:03:47;14.80;96.70
49579;DHT22;35483;50.828;3.228;2023-05-23T03:06:13;14.80;96.50
49579;DHT22;35483;50.828;3.228;2023-05-23T03:08:41;14.80;96.80
49579;DHT22;35483;50.828;3.228;2023-05-23T03:11:07;14.80;96.90
49579;DHT22;35483;50.828;3.228;2023-05-23T03:13:34;14.70;96.60
49579;DHT22;35483;50.828;3.228;2023-05-23T03:16:00;14.80;96.30
49579;DHT22;35483;50.828;3.228;2023-05-23T03:18:26;14.80;96.50
49579;DHT22;35483;50.828;3.228;2023-05-23T03:20:51;14.80;96.40
49579;DHT22;35483;50.828;3.228;2023-05-23T03:23:17;14.80;96.50
49579;DHT22;35483;50.828;3.228;2023-05-23T03:25:43;14.70;96.20
49579;DHT22;35483;50.828;3.228;2023-05-23T03:28:09;14.80;96.30
49579;DHT22;35483;50.828;3.228;2023-05-23T03:30:37;14.80;96.50
49579;DHT22;35483;50.828;3.228;2023-05-23T03:33:03;14.80;96.40
49579;DHT22;35483;50.828;3.228;2023-05-23T03:35:29;14.70;96.30
49579;DHT22;35483;50.828;3.228;2023-05-23T03:37:57;14.70;96.50
49579;DHT22;35483;50.828;3.228;2023-05-23T03:40:23;14.70;96.10
49579;DHT22;35483;50.828;3.228;2023-05-23T03:43:03;14.80;96.00
49579;DHT22;35483;50.828;3.228;2023-05-23T03:45:30;14.80;96.70
49579;DHT22;35483;50.828;3.228;2023-05-23T03:47:57;14.80;96.10
49579;DHT22;35483;50.828;3.228;2023-05-23T03:50:23;14.70;96.00
49579;DHT22;35483;50.828;3.228;2023-05-23T03:52:49;14.70;96.30
49579;DHT22;35483;50.828;3.228;2023-05-23T03:55:15;14.80;96.10
49579;DHT22;35483;50.828;3.228;2023-05-23T03:57:41;14.80;96.70
49579;DHT22;35483;50.828;3.228;2023-05-23T04:00:08;14.70;96.00
49579;DHT22;35483;50.828;3.228;2023-05-23T04:02:37;14.70;96.30
49579;DHT22;35483;50.828;3.228;2023-05-23T04:05:06;14.70;96.60
49579;DHT22;35483;50.828;3.228;2023-05-23T04:07:32;14.60;96.40
49579;DHT22;35483;50.828;3.228;2023-05-23T04:10:04;14.50;96.40
49579;DHT22;35483;50.828;3.228;2023-05-23T04:12:30;14.60;96.30
49579;DHT22;35483;50.828;3.228;2023-05-23T04:14:59;14.60;95.90
49579;DHT22;35483;50.828;3.228;2023-05-23T04:17:25;14.60;96.20
49579;DHT22;35483;50.828;3.228;2023-05-23T04:19:55;14.50;96.10
49579;DHT22;35483;50.828;3.228;2023-05-23T04:22:22;14.60;95.80
49579;DHT22;35483;50.828;3.228;2023-05-23T04:24:48;14.70;95.70
49579;DHT22;35483;50.828;3.228;2023-05-23T04:27:14;14.60;96.10
49579;DHT22;35483;50.828;3.228;2023-05-23T04:29:40;14.50;96.30
49579;DHT22;35483;50.828;3.228;2023-05-23T04:32:09;14.50;95.90
49579;DHT22;35483;50.828;3.228;2023-05-23T04:34:35;14.60;96.30
49579;DHT22;35483;50.828;3.228;2023-05-23T04:37:02;14.50;96.20
49579;DHT22;35483;50.828;3.228;2023-05-23T04:39:29;14.50;96.10
49579;DHT22;35483;50.828;3.228;2023-05-23T04:41:55;14.60;95.70
49579;DHT22;35483;50.828;3.228;2023-05-23T04:44:25;14.60;95.60
49579;DHT22;35483;50.828;3.228;2023-05-23T04:46:55;14.50;96.80
49579;DHT22;35483;50.828;3.228;2023-05-23T04:49:21;14.40;96.10
49579;DHT22;35483;50.828;3.228;2023-05-23T04:51:48;14.50;95.80
49579;DHT22;35483;50.828;3.228;2023-05-23T04:54:14;14.50;95.80
49579;DHT22;35483;50.828;3.228;2023-05-23T04:56:40;14.50;95.70
49579;DHT22;35483;50.828;3.228;2023-05-23T04:59:06;14.50;96.40
49579;DHT22;35483;50.828;3.228;2023-05-23T05:01:34;14.50;95.70
49579;DHT22;35483;50.828;3.228;2023-05-23T05:04:00;14.50;95.60
49579;DHT22;35483;50.828;3.228;2023-05-23T05:06:26;14.50;95.80
49579;DHT22;35483;50.828;3.228;2023-05-23T05:08:53;14.50;95.80
49579;DHT22;35483;50.828;3.228;2023-05-23T05:11:19;14.50;95.80
49579;DHT22;35483;50.828;3.228;2023-05-23T05:13:45;14.50;95.90
49579;DHT22;35483;50.828;3.228;2023-05-23T05:16:11;14.50;95.70
49579;DHT22;35483;50.828;3.228;2023-05-23T05:18:38;14.50;95.80
49579;DHT22;35483;50.828;3.228;2023-05-23T05:21:04;14.50;95.70
49579;DHT22;35483;50.828;3.228;2023-05-23T05:23:31;14.50;95.80
49579;DHT22;35483;50.828;3.228;2023-05-23T05:25:57;14.50;95.70
49579;DHT22;35483;50.828;3.228;2023-05-23T05:28:25;14.60;95.50
49579;DHT22;35483;50.828;3.228;2023-05-23T05:30:51;14.60;95.50
49579;DHT22;35483;50.828;3.228;2023-05-23T05:33:19;14.60;95.40
49579;DHT22;35483;50.828;3.228;2023-05-23T05:35:48;14.60;95.30
49579;DHT22;35483;50.828;3.228;2023-05-23T05:38:16;14.60;95.30
49579;DHT22;35483;50.828;3.228;2023-05-23T05:40:42;14.60;95.70
49579;DHT22;35483;50.828;3.228;2023-05-23T05:43:08;14.50;95.20
49579;DHT22;35483;50.828;3.228;2023-05-23T05:45:35;14.50;95.30
49579;DHT22;35483;50.828;3.228;2023-05-23T05:48:01;14.50;95.10
49579;DHT22;35483;50.828;3.228;2023-05-23T05:50:28;14.50;95.10
49579;DHT22;35483;50.828;3.228;2023-05-23T05:52:54;14.50;95.00
49579;DHT22;35483;50.828;3.228;2023-05-23T05:55:20;14.60;94.90
49579;DHT22;35483;50.828;3.228;2023-05-23T05:57:46;14.80;94.70
49579;DHT22;35483;50.828;3.228;2023-05-23T06:00:13;14.90;94.40
49579;DHT22;35483;50.828;3.228;2023-05-23T06:02:43;15.00;94.40
49579;DHT22;35483;50.828;3.228;2023-05-23T06:05:10;15.10;94.20
49579;DHT22;35483;50.828;3.228;2023-05-23T06:07:44;15.00;94.10
49579;DHT22;35483;50.828;3.228;2023-05-23T06:10:12;15.00;94.20
49579;DHT22;35483;50.828;3.228;2023-05-23T06:12:38;14.90;94.10
49579;DHT22;35483;50.828;3.228;2023-05-23T06:15:05;15.00;94.10
49579;DHT22;35483;50.828;3.228;2023-05-23T06:17:32;15.00;94.10
49579;DHT22;35483;50.828;3.228;2023-05-23T06:19:58;15.00;94.10
49579;DHT22;35483;50.828;3.228;2023-05-23T06:22:24;15.00;93.90
49579;DHT22;35483;50.828;3.228;2023-05-23T06:24:50;15.00;94.00
49579;DHT22;35483;50.828;3.228;2023-05-23T06:27:16;14.80;94.10
49579;DHT22;35483;50.828;3.228;2023-05-23T06:29:42;14.90;93.90
49579;DHT22;35483;50.828;3.228;2023-05-23T06:32:08;14.80;93.70
49579;DHT22;35483;50.828;3.228;2023-05-23T06:34:34;14.80;93.90
49579;DHT22;35483;50.828;3.228;2023-05-23T06:37:00;14.80;93.80
49579;DHT22;35483;50.828;3.228;2023-05-23T06:39:26;14.80;93.80
49579;DHT22;35483;50.828;3.228;2023-05-23T06:41:53;14.80;93.60
49579;DHT22;35483;50.828;3.228;2023-05-23T06:44:19;14.80;93.40
49579;DHT22;35483;50.828;3.228;2023-05-23T06:46:45;14.80;93.60
49579;DHT22;35483;50.828;3.228;2023-05-23T06:49:11;14.90;93.70
49579;DHT22;35483;50.828;3.228;2023-05-23T06:51:37;14.80;93.50
49579;DHT22;35483;50.828;3.228;2023-05-23T06:54:04;14.60;93.70
49579;DHT22;35483;50.828;3.228;2023-05-23T06:56:30;14.50;93.90
49579;DHT22;35483;50.828;3.228;2023-05-23T06:58:56;14.40;94.10
49579;DHT22;35483;50.828;3.228;2023-05-23T07:01:22;14.50;94.00
49579;DHT22;35483;50.828;3.228;2023-05-23T07:03:48;14.50;94.00
49579;DHT22;35483;50.828;3.228;2023-05-23T07:06:16;14.50;94.00
49579;DHT22;35483;50.828;3.228;2023-05-23T07:08:42;14.60;94.00
49579;DHT22;35483;50.828;3.228;2023-05-23T07:11:08;14.70;93.90
49579;DHT22;35483;50.828;3.228;2023-05-23T07:13:34;14.70;93.90
49579;DHT22;35483;50.828;3.228;2023-05-23T07:16:00;14.70;93.80
49579;DHT22;35483;50.828;3.228;2023-05-23T07:18:26;14.60;93.80
49579;DHT22;35483;50.828;3.228;2023-05-23T07:20:52;14.70;93.70
49579;DHT22;35483;50.828;3.228;2023-05-23T07:23:21;14.70;93.60
49579;DHT22;35483;50.828;3.228;2023-05-23T07:25:48;14.80;93.70
49579;DHT22;35483;50.828;3.228;2023-05-23T07:28:14;14.80;93.60
49579;DHT22;35483;50.828;3.228;2023-05-23T07:30:41;14.80;93.60
49579;DHT22;35483;50.828;3.228;2023-05-23T07:33:07;14.90;93.60
49579;DHT22;35483;50.828;3.228;2023-05-23T07:35:33;14.90;93.60
49579;DHT22;35483;50.828;3.228;2023-05-23T07:37:59;14.80;93.60
49579;DHT22;35483;50.828;3.228;2023-05-23T07:40:25;14.80;93.70
49579;DHT22;35483;50.828;3.228;2023-05-23T07:42:51;14.80;93.80
49579;DHT22;35483;50.828;3.228;2023-05-23T07:45:18;14.70;93.90
49579;DHT22;35483;50.828;3.228;2023-05-23T07:47:44;14.70;94.00
49579;DHT22;35483;50.828;3.228;2023-05-23T07:50:11;14.80;93.90
49579;DHT22;35483;50.828;3.228;2023-05-23T07:52:37;14.80;93.80
49579;DHT22;35483;50.828;3.228;2023-05-23T07:55:04;14.80;93.70
49579;DHT22;35483;50.828;3.228;2023-05-23T07:57:30;14.90;93.80
49579;DHT22;35483;50.828;3.228;2023-05-23T07:59:56;14.80;93.90
49579;DHT22;35483;50.828;3.228;2023-05-23T08:02:22;14.80;94.10
49579;DHT22;35483;50.828;3.228;2023-05-23T08:04:48;14.70;94.10
49579;DHT22;35483;50.828;3.228;2023-05-23T08:07:14;14.70;94.10
49579;DHT22;35483;50.828;3.228;2023-05-23T08:09:40;14.70;94.10
49579;DHT22;35483;50.828;3.228;2023-05-23T08:12:07;14.70;94.10
49579;DHT22;35483;50.828;3.228;2023-05-23T08:14:34;14.70;94.10
49579;DHT22;35483;50.828;3.228;2023-05-23T08:17:01;14.60;94.40
49579;DHT22;35483;50.828;3.228;2023-05-23T08:19:27;14.60;94.30
49579;DHT22;35483;50.828;3.228;2023-05-23T08:21:53;14.60;94.20
49579;DHT22;35483;50.828;3.228;2023-05-23T08:24:20;14.60;94.10
49579;DHT22;35483;50.828;3.228;2023-05-23T08:26:47;14.70;94.10
49579;DHT22;35483;50.828;3.228;2023-05-23T08:29:14;14.80;94.00
49579;DHT22;35483;50.828;3.228;2023-05-23T08:31:40;14.70;94.00
49579;DHT22;35483;50.828;3.228;2023-05-23T08:34:06;14.80;93.90
49579;DHT22;35483;50.828;3.228;2023-05-23T08:36:32;14.80;94.10
49579;DHT22;35483;50.828;3.228;2023-05-23T08:39:01;14.80;94.00
49579;DHT22;35483;50.828;3.228;2023-05-23T08:41:28;14.90;94.00
49579;DHT22;35483;50.828;3.228;2023-05-23T08:43:54;15.00;93.90
49579;DHT22;35483;50.828;3.228;2023-05-23T08:46:22;15.20;93.70
49579;DHT22;35483;50.828;3.228;2023-05-23T08:48:53;15.40;93.50
49579;DHT22;35483;50.828;3.228;2023-05-23T08:51:25;15.50;93.40
49579;DHT22;35483;50.828;3.228;2023-05-23T08:53:51;15.70;93.30
49579;DHT22;35483;50.828;3.228;2023-05-23T08:56:18;15.70;93.20
49579;DHT22;35483;50.828;3.228;2023-05-23T08:58:45;15.80;93.10
49579;DHT22;35483;50.828;3.228;2023-05-23T09:01:12;15.90;93.10
49579;DHT22;35483;50.828;3.228;2023-05-23T09:03:39;16.00;93.00
49579;DHT22;35483;50.828;3.228;2023-05-23T09:06:07;16.10;92.90
49579;DHT22;35483;50.828;3.228;2023-05-23T09:08:34;16.30;92.80
49579;DHT22;35483;50.828;3.228;2023-05-23T09:11:04;16.30;92.60
49579;DHT22;35483;50.828;3.228;2023-05-23T09:13:33;16.30;92.90
49579;DHT22;35483;50.828;3.228;2023-05-23T09:16:04;16.40;92.80
49579;DHT22;35483;50.828;3.228;2023-05-23T09:18:43;16.40;92.20
49579;DHT22;35483;50.828;3.228;2023-05-23T09:21:10;16.40;92.10
49579;DHT22;35483;50.828;3.228;2023-05-23T09:23:38;16.50;92.80
49579;DHT22;35483;50.828;3.228;2023-05-23T09:26:08;16.50;92.80
49579;DHT22;35483;50.828;3.228;2023-05-23T09:28:35;16.60;91.80
49579;DHT22;35483;50.828;3.228;2023-05-23T09:31:04;16.40;92.50
49579;DHT22;35483;50.828;3.228;2023-05-23T09:33:42;16.40;92.80
49579;DHT22;35483;50.828;3.228;2023-05-23T09:36:08;16.30;92.90
49579;DHT22;35483;50.828;3.228;2023-05-23T09:38:41;16.30;92.60
49579;DHT22;35483;50.828;3.228;2023-05-23T09:41:08;16.40;92.40
49579;DHT22;35483;50.828;3.228;2023-05-23T09:43:49;16.60;92.70
49579;DHT22;35483;50.828;3.228;2023-05-23T09:46:16;16.50;92.60
49579;DHT22;35483;50.828;3.228;2023-05-23T09:48:49;16.50;92.70
49579;DHT22;35483;50.828;3.228;2023-05-23T09:51:21;16.40;91.80
49579;DHT22;35483;50.828;3.228;2023-05-23T09:53:51;16.40;92.60
49579;DHT22;35483;50.828;3.228;2023-05-23T09:56:18;16.40;92.20
49579;DHT22;35483;50.828;3.228;2023-05-23T09:58:48;16.70;92.60
49579;DHT22;35483;50.828;3.228;2023-05-23T10:01:15;17.00;92.10
49579;DHT22;35483;50.828;3.228;2023-05-23T10:03:47;17.30;92.00
49579;DHT22;35483;50.828;3.228;2023-05-23T10:06:24;17.40;91.50
49579;DHT22;35483;50.828;3.228;2023-05-23T10:09:04;17.50;91.50
49579;DHT22;35483;50.828;3.228;2023-05-23T10:14:37;17.70;90.50
49579;DHT22;35483;50.828;3.228;2023-05-23T10:17:18;17.70;91.40
49579;DHT22;35483;50.828;3.228;2023-05-23T10:19:57;17.50;86.30
49579;DHT22;35483;50.828;3.228;2023-05-23T10:22:26;17.30;91.60
49579;DHT22;35483;50.828;3.228;2023-05-23T10:24:53;17.30;91.30
49579;DHT22;35483;50.828;3.228;2023-05-23T10:27:19;17.30;91.40
49579;DHT22;35483;50.828;3.228;2023-05-23T10:29:45;17.40;91.40
49579;DHT22;35483;50.828;3.228;2023-05-23T10:32:12;17.60;91.70
49579;DHT22;35483;50.828;3.228;2023-05-23T10:34:40;17.90;91.10
49579;DHT22;35483;50.828;3.228;2023-05-23T10:37:16;18.30;91.30
49579;DHT22;35483;50.828;3.228;2023-05-23T10:40:10;18.50;90.90
49579;DHT22;35483;50.828;3.228;2023-05-23T10:45:42;18.50;89.50
49579;DHT22;35483;50.828;3.228;2023-05-23T10:48:30;18.40;90.70
49579;DHT22;35483;50.828;3.228;2023-05-23T10:51:06;18.30;86.30
49579;DHT22;35483;50.828;3.228;2023-05-23T10:53:40;18.40;90.50
49579;DHT22;35483;50.828;3.228;2023-05-23T10:56:07;18.50;90.80
49579;DHT22;35483;50.828;3.228;2023-05-23T11:01:50;18.30;82.70
49579;DHT22;35483;50.828;3.228;2023-05-23T11:04:24;18.10;90.70
49579;DHT22;35483;50.828;3.228;2023-05-23T11:06:53;18.00;85.80
49579;DHT22;35483;50.828;3.228;2023-05-23T11:09:19;17.90;90.90
49579;DHT22;35483;50.828;3.228;2023-05-23T11:16:57;17.60;85.10
49579;DHT22;35483;50.828;3.228;2023-05-23T11:19:25;17.50;90.50
49579;DHT22;35483;50.828;3.228;2023-05-23T11:22:01;17.50;89.70
49579;DHT22;35483;50.828;3.228;2023-05-23T11:24:50;17.50;90.40
49579;DHT22;35483;50.828;3.228;2023-05-23T11:27:32;17.60;85.00
49579;DHT22;35483;50.828;3.228;2023-05-23T11:30:12;17.50;90.30
49579;DHT22;35483;50.828;3.228;2023-05-23T11:32:39;17.50;85.40
49579;DHT22;35483;50.828;3.228;2023-05-23T11:35:07;17.50;90.40
49579;DHT22;35483;50.828;3.228;2023-05-23T11:37:33;17.50;90.50
49579;DHT22;35483;50.828;3.228;2023-05-23T11:40:26;17.70;90.10
49579;DHT22;35483;50.828;3.228;2023-05-23T11:42:56;17.90;82.40
49579;DHT22;35483;50.828;3.228;2023-05-23T11:45:22;18.10;82.40
49579;DHT22;35483;50.828;3.228;2023-05-23T11:47:49;17.90;85.50
49579;DHT22;35483;50.828;3.228;2023-05-23T11:50:15;18.10;90.20
49579;DHT22;35483;50.828;3.228;2023-05-23T11:52:42;18.20;90.00
49579;DHT22;35483;50.828;3.228;2023-05-23T11:55:09;18.30;89.60
49579;DHT22;35483;50.828;3.228;2023-05-23T11:57:38;18.30;89.70
49579;DHT22;35483;50.828;3.228;2023-05-23T12:00:08;18.30;89.00
49579;DHT22;35483;50.828;3.228;2023-05-23T12:02:39;18.30;89.10
49579;DHT22;35483;50.828;3.228;2023-05-23T12:05:09;18.40;90.00
49579;DHT22;35483;50.828;3.228;2023-05-23T12:07:46;18.50;89.10
49579;DHT22;35483;50.828;3.228;2023-05-23T12:10:16;18.60;89.60
49579;DHT22;35483;50.828;3.228;2023-05-23T12:12:43;18.50;88.30
49579;DHT22;35483;50.828;3.228;2023-05-23T12:15:10;18.40;89.10
49579;DHT22;35483;50.828;3.228;2023-05-23T12:17:37;18.40;89.50
49579;DHT22;35483;50.828;3.228;2023-05-23T12:20:05;18.40;89.40
49579;DHT22;35483;50.828;3.228;2023-05-23T12:22:32;18.40;89.00
49579;DHT22;35483;50.828;3.228;2023-05-23T12:24:58;18.30;88.80
49579;DHT22;35483;50.828;3.228;2023-05-23T12:27:28;18.30;89.60
49579;DHT22;35483;50.828;3.228;2023-05-23T12:32:32;18.20;83.30
49579;DHT22;35483;50.828;3.228;2023-05-23T12:34:58;18.30;88.30
49579;DHT22;35483;50.828;3.228;2023-05-23T12:37:24;18.30;89.30
49579;DHT22;35483;50.828;3.228;2023-05-23T12:39:50;18.20;88.90
49579;DHT22;35483;50.828;3.228;2023-05-23T12:42:16;18.10;83.90
49579;DHT22;35483;50.828;3.228;2023-05-23T12:44:42;17.90;89.40
49579;DHT22;35483;50.828;3.228;2023-05-23T12:47:10;17.90;89.60
49579;DHT22;35483;50.828;3.228;2023-05-23T12:49:37;18.00;89.50
49579;DHT22;35483;50.828;3.228;2023-05-23T12:52:03;18.00;89.10
49579;DHT22;35483;50.828;3.228;2023-05-23T12:54:29;17.90;88.70
49579;DHT22;35483;50.828;3.228;2023-05-23T12:56:55;17.90;88.70
49579;DHT22;35483;50.828;3.228;2023-05-23T12:59:21;17.90;89.40
49579;DHT22;35483;50.828;3.228;2023-05-23T13:01:47;18.00;88.40
49579;DHT22;35483;50.828;3.228;2023-05-23T13:04:13;18.00;89.40
49579;DHT22;35483;50.828;3.228;2023-05-23T13:06:39;18.00;89.10
49579;DHT22;35483;50.828;3.228;2023-05-23T13:09:05;17.90;88.20
49579;DHT22;35483;50.828;3.228;2023-05-23T13:11:31;17.80;88.30
49579;DHT22;35483;50.828;3.228;2023-05-23T13:13:57;17.90;89.10
49579;DHT22;35483;50.828;3.228;2023-05-23T13:16:23;18.00;87.20
49579;DHT22;35483;50.828;3.228;2023-05-23T13:18:49;17.90;88.90
49579;DHT22;35483;50.828;3.228;2023-05-23T13:21:15;17.90;88.40
49579;DHT22;35483;50.828;3.228;2023-05-23T13:23:41;17.90;88.50
49579;DHT22;35483;50.828;3.228;2023-05-23T13:26:07;18.00;88.00
49579;DHT22;35483;50.828;3.228;2023-05-23T13:28:33;18.10;88.70
49579;DHT22;35483;50.828;3.228;2023-05-23T13:30:59;18.30;87.40
49579;DHT22;35483;50.828;3.228;2023-05-23T13:33:26;18.40;88.10
49579;DHT22;35483;50.828;3.228;2023-05-23T13:35:52;18.40;87.00
49579;DHT22;35483;50.828;3.228;2023-05-23T13:38:19;18.50;87.90
49579;DHT22;35483;50.828;3.228;2023-05-23T13:40:45;18.50;86.50
49579;DHT22;35483;50.828;3.228;2023-05-23T13:43:12;18.50;86.60
49579;DHT22;35483;50.828;3.228;2023-05-23T13:45:38;18.60;87.60
49579;DHT22;35483;50.828;3.228;2023-05-23T13:48:04;18.50;87.30
49579;DHT22;35483;50.828;3.228;2023-05-23T13:50:30;18.60;87.60
49579;DHT22;35483;50.828;3.228;2023-05-23T13:52:56;18.60;87.20
49579;DHT22;35483;50.828;3.228;2023-05-23T13:55:22;18.60;86.50
49579;DHT22;35483;50.828;3.228;2023-05-23T13:57:48;18.30;85.70
49579;DHT22;35483;50.828;3.228;2023-05-23T14:00:14;18.30;87.10
49579;DHT22;35483;50.828;3.228;2023-05-23T14:02:40;18.20;84.30
49579;DHT22;35483;50.828;3.228;2023-05-23T14:05:07;18.00;87.30
49579;DHT22;35483;50.828;3.228;2023-05-23T14:07:33;17.90;87.70
49579;DHT22;35483;50.828;3.228;2023-05-23T14:09:59;17.90;87.00
49579;DHT22;35483;50.828;3.228;2023-05-23T14:12:25;17.90;87.50
49579;DHT22;35483;50.828;3.228;2023-05-23T14:14:51;17.80;87.10
49579;DHT22;35483;50.828;3.228;2023-05-23T14:17:18;17.80;87.60
49579;DHT22;35483;50.828;3.228;2023-05-23T14:19:44;17.80;87.10
49579;DHT22;35483;50.828;3.228;2023-05-23T14:22:11;17.80;87.40
49579;DHT22;35483;50.828;3.228;2023-05-23T14:24:37;17.80;86.50
49579;DHT22;35483;50.828;3.228;2023-05-23T14:27:04;17.50;86.10
49579;DHT22;35483;50.828;3.228;2023-05-23T14:29:31;17.60;85.60
49579;DHT22;35483;50.828;3.228;2023-05-23T14:31:57;17.60;86.70
49579;DHT22;35483;50.828;3.228;2023-05-23T14:34:25;17.60;86.60
49579;DHT22;35483;50.828;3.228;2023-05-23T14:36:51;17.40;86.00
49579;DHT22;35483;50.828;3.228;2023-05-23T14:39:17;17.50;86.80
49579;DHT22;35483;50.828;3.228;2023-05-23T14:41:43;17.40;85.70
49579;DHT22;35483;50.828;3.228;2023-05-23T14:44:11;17.40;85.00
49579;DHT22;35483;50.828;3.228;2023-05-23T14:46:37;17.40;85.30
49579;DHT22;35483;50.828;3.228;2023-05-23T14:49:03;17.40;83.60
49579;DHT22;35483;50.828;3.228;2023-05-23T14:51:29;17.40;86.60
49579;DHT22;35483;50.828;3.228;2023-05-23T14:53:55;17.40;86.50
49579;DHT22;35483;50.828;3.228;2023-05-23T14:56:23;17.40;86.30
49579;DHT22;35483;50.828;3.228;2023-05-23T14:58:49;17.40;85.70
49579;DHT22;35483;50.828;3.228;2023-05-23T15:01:15;17.30;84.90
49579;DHT22;35483;50.828;3.228;2023-05-23T15:03:42;17.20;83.80
49579;DHT22;35483;50.828;3.228;2023-05-23T15:06:08;17.40;85.50
49579;DHT22;35483;50.828;3.228;2023-05-23T15:08:34;17.40;86.00
49579;DHT22;35483;50.828;3.228;2023-05-23T15:11:01;17.30;83.70
49579;DHT22;35483;50.828;3.228;2023-05-23T15:13:27;17.20;85.90
49579;DHT22;35483;50.828;3.228;2023-05-23T15:15:53;17.30;86.50
49579;DHT22;35483;50.828;3.228;2023-05-23T15:18:19;17.30;81.80
49579;DHT22;35483;50.828;3.228;2023-05-23T15:20:45;17.20;85.50
49579;DHT22;35483;50.828;3.228;2023-05-23T15:23:11;17.10;86.10
49579;DHT22;35483;50.828;3.228;2023-05-23T15:25:37;17.20;86.50
49579;DHT22;35483;50.828;3.228;2023-05-23T15:28:04;17.30;84.30
49579;DHT22;35483;50.828;3.228;2023-05-23T15:30:30;17.20;86.40
49579;DHT22;35483;50.828;3.228;2023-05-23T15:32:56;17.30;86.30
49579;DHT22;35483;50.828;3.228;2023-05-23T15:35:22;17.20;85.70
49579;DHT22;35483;50.828;3.228;2023-05-23T15:37:48;17.30;86.20
49579;DHT22;35483;50.828;3.228;2023-05-23T15:40:14;17.30;85.60
49579;DHT22;35483;50.828;3.228;2023-05-23T15:42:42;17.30;86.00
49579;DHT22;35483;50.828;3.228;2023-05-23T15:45:08;17.20;85.10
49579;DHT22;35483;50.828;3.228;2023-05-23T15:47:35;17.20;86.00
49579;DHT22;35483;50.828;3.228;2023-05-23T15:50:01;17.10;85.30
49579;DHT22;35483;50.828;3.228;2023-05-23T15:52:27;17.10;86.10
49579;DHT22;35483;50.828;3.228;2023-05-23T15:54:53;17.00;85.70
49579;DHT22;35483;50.828;3.228;2023-05-23T15:57:19;16.90;84.80